Tiempo atmosférico en la estación meteorológica de Binissalem, Illes Balears (105 m.)



Fecha
DESCASC
Temp. máxima en grados centígrados (hora)
DESCASC
Temp. mínima en grados centígrados (hora)
DESCASC
Temp. media en grados centígrados
DESCASC
Racha de viento máxima en m/sg (hora)
DESCASC
Velocidad máxima media en intervalos de 10 minutos(hora)
DESCASC
Precipitaciones diarias en mm
DESCASC
Precipitaciones de 00:00 a 06:00 en mm
DESCASC
Precipitaciones de 06:00 a 12:00 en mm
DESCASC
Precipitaciones de 12:00 a 18:00 en mm
DESCASC
Precipitaciones de 18:00 a 24:00 en mm
DESCASC
18-01-2018 16 (14:30) 7.3 (23:50) 11.7 7.5 (13:00) 4.72 (14:40) 0 0 0 0 0
17-01-2018 17.3 (05:20) 9.3 (22:20) 13.3 17.78 (11:50) 11.11 (11:40) 0 0 0 0 0
16-01-2018 16.3 (13:50) 6.3 (02:20) 11.3 12.5 (14:30) 8.33 (15:40) 0 0 0 0 0
15-01-2018 15.1 (15:30) 0.1 (08:10) 7.6 6.39 (22:30) 3.89 (22:20) 0 0 0 0 0
14-01-2018 13.8 (14:10) 3.3 (00:00) 8.6 7.22 (15:00) 5 (15:00) 0 0 0 0 0
13-01-2018 13.9 (13:30) -0.4 (00:00) 6.7 5.28 (15:00) 3.33 (14:50) 0 0 0 0 0
12-01-2018 14.4 (13:30) 2.8 (00:00) 8.6 7.22 (15:50) 5.28 (15:50) 0 0 0 0 0
11-01-2018 12.4 (11:50) 5.6 (00:00) 9 16.11 (06:00) 10.28 (06:10) 1.4 1.2 0 0.2 0
10-01-2018 14.5 (15:20) 8.1 (00:00) 11.3 8.33 (12:10) 5.28 (12:30) 0 0 0 0 0
09-01-2018 14.5 (13:30) 3.7 (00:00) 9.1 11.11 (13:30) 7.22 (14:10) 0 0 0 0 0
08-01-2018 10.3 (14:30) 1.8 (00:00) 6.1 6.67 (14:40) 3.89 (14:30) 2.8 0 0.2 2.6 0
07-01-2018 13.9 (00:00) 3.1 (00:00) 8.5 10.28 (01:50) 6.39 (01:50) 11 0 9 2 0
06-01-2018 16.6 (16:40) 8.4 (00:00) 12.5 8.33 (23:40) 5 (23:50) 0 0 0 0 0
05-01-2018 17.3 (12:30) 4.3 (00:00) 10.8 14.44 (13:40) 10 (13:40) 0 0 0 0 0
04-01-2018 22.4 (13:00) 9.6 (23:59) 16 17.78 (06:40) 9.17 (06:40) 0 0 0 0 0
03-01-2018 22 (15:30) 12.6 (00:00) 17.3 14.17 (17:30) 8.61 (17:30) 0 0 0 0 0
02-01-2018 19.1 (14:20) 11.4 (00:00) 15.3 19.17 (00:10) 9.17 (00:10) 0 0 0 0 0
01-01-2018 17.2 (22:50) 12 (00:00) 14.6 23.61 (05:30) 14.72 (23:00) 0 0 0 0 0
31-12-2017 16.1 (13:40) 6.5 (00:00) 11.3 15.83 (21:50) 10.28 (21:50) 0 0 0 0 0
30-12-2017 20.8 (14:30) 9.1 (00:00) 14.9 11.39 (09:30) 7.5 (09:10) 0 0 0 0 0
29-12-2017 16.7 (23:59) 5.9 (00:00) 11.3 10.83 (22:30) 7.22 (22:30) 0 0 0 0 0
28-12-2017 15.6 (14:50) 11.1 (00:00) 13.4 21.67 (02:20) 11.67 (22:30) 0 0 0 0 0
27-12-2017 14.8 (11:30) 9 (00:00) 11.9 27.5 (16:30) 17.5 (14:20) 3.6 0.8 2.4 0.4 0
26-12-2017 16.3 (12:30) 6.5 (00:00) 11.4 11.11 (12:30) 6.39 (12:50) 3.6 0 0 3.6 0
25-12-2017 16.7 (15:10) 7.3 (00:00) 12 5.83 (12:40) 3.61 (14:00) 0 0 0 0 0
24-12-2017 16.7 (14:30) 2.7 (00:00) 9.7 6.94 (14:30) 4.72 (12:30) 0 0 0 0 0
23-12-2017 15.3 (13:50) 4.7 (00:00) 10 5 (14:00) 2.78 (14:00) 0 0 0 0 0
22-12-2017 17.9 (13:40) 4.2 (00:00) 11 8.89 (10:40) 5.83 (07:40) 0 0 0 0 0
21-12-2017 11.9 (14:50) 6.7 (00:00) 9.3 12.22 (14:50) 6.67 (11:30) 2.6 1 1.6 0 0

Gráficas

Temp. máximas Temp. mínimas Temp. medias Precipitaciones Rachas de viento máximas Velocidades máximas media en intervalos de 10 minutos

Datos horarios

Fecha y hora oficial Temperatura (ºC) Velocidad del viento (km/h) Dirección del viento Racha (km/h) Dirección de racha Precipitación (mm) Presión (hPa) Tendencia (hPa) Humedad (%)
2018-01-19 23:00:00 7.1 2 Oeste 5 Norte 0 -- -- 90
2018-01-19 22:00:00 6.7 0 Calma 10 Sur 0 -- -- 88
2018-01-19 21:00:00 9 2 Sudoeste 16 Oeste 0 -- -- 83
2018-01-19 20:00:00 9 6 Oeste 10 Oeste 0 -- -- 84
2018-01-19 19:00:00 10.4 9 Oeste 13 Oeste 0 -- -- 81
2018-01-19 18:00:00 12.1 10 Oeste 19 Sudoeste 0 -- -- 74
2018-01-19 17:00:00 13.5 12 Oeste 23 Oeste 0 -- -- 69
2018-01-19 16:00:00 14.2 14 Oeste 22 Oeste 0 -- -- 68
2018-01-19 15:00:00 14.5 12 Sudoeste 19 Noroeste 0 -- -- 63
2018-01-19 14:00:00 14.9 14 Oeste 24 Oeste 0 -- -- 64
2018-01-19 13:00:00 14.5 7 Oeste 13 Sudoeste 0 -- -- 74
2018-01-19 12:00:00 12.7 8 Sur 11 Sudoeste 0 -- -- 89
2018-01-19 11:00:00 9.2 0 Calma 7 Noroeste 0 -- -- 97
2018-01-19 10:00:00 6.1 3 Oeste 7 Sudoeste 0 -- -- 96
2018-01-19 09:00:00 5.2 2 Noroeste 5 Sudoeste 0 -- -- 95
2018-01-19 08:00:00 4.9 3 Sudoeste 9 Noroeste 0 -- -- 95
2018-01-19 07:00:00 5 4 Sudoeste 8 Sudoeste 0 -- -- 95
2018-01-19 06:00:00 5.3 2 Noroeste 4 Noroeste 0 -- -- 94
2018-01-19 05:00:00 5.8 3 Noroeste 7 Oeste 0 -- -- 95
2018-01-19 04:00:00 5.5 0 Calma 3 Oeste 0 -- -- 94
2018-01-19 03:00:00 5.9 2 Noroeste 6 Oeste 0 -- -- 94
2018-01-19 02:00:00 6.1 0 Calma 6 Norte 0 -- -- 93
2018-01-19 01:00:00 6.5 2 Oeste 7 Sur 0 -- -- 92
2018-01-19 00:00:00 7.4 0 Calma 6 Oeste 0 -- -- 90
2018-01-18 23:00:00 8.5 6 Oeste 12 Sudoeste 0 -- -- 89
2018-01-18 22:00:00 9.8 7 Oeste 9 Sudoeste 0 -- -- 86
2018-01-18 21:00:00 10.8 6 Oeste 11 Oeste 0 -- -- 84
2018-01-18 20:00:00 11.3 5 Oeste 10 Oeste 0 -- -- 83
2018-01-18 19:00:00 12.2 4 Oeste 15 Sudoeste 0 -- -- 80
2018-01-18 18:00:00 12.7 8 Sudoeste 16 Sudoeste 0 -- -- 77
2018-01-18 17:00:00 14.3 14 Sudoeste 22 Sudoeste 0 -- -- 71
2018-01-18 16:00:00 14.8 9 Sudoeste 21 Sur 0 -- -- 69
2018-01-18 15:00:00 15.5 15 Sur 23 Sur 0 -- -- 67
2018-01-18 14:00:00 14.8 12 Sudoeste 21 Sur 0 -- -- 71
2018-01-18 13:00:00 15.3 11 Sur 27 Sur 0 -- -- 70
2018-01-18 12:00:00 15.4 9 Sudoeste 17 Sudoeste 0 -- -- 70
2018-01-18 11:00:00 14 11 Sudoeste 17 Sur 0 -- -- 76
2018-01-18 10:00:00 12 0 Calma 5 Noroeste 0 -- -- 91
2018-01-18 09:00:00 8.4 4 Oeste 7 Oeste 0 -- -- 92
2018-01-18 08:00:00 8.1 5 Oeste 6 Oeste 0 -- -- 90
2018-01-18 07:00:00 9.8 0 Calma 2 Noroeste 0 -- -- 89
2018-01-18 06:00:00 10.4 3 Norte 6 Norte 0 -- -- 89
2018-01-18 05:00:00 10.1 3 Oeste 5 Oeste 0 -- -- 88
2018-01-18 04:00:00 10.5 2 Oeste 6 Noroeste 0 -- -- 88
2018-01-18 03:00:00 10.5 3 Noroeste 4 Norte 0 -- -- 88
2018-01-18 02:00:00 10.5 0 Calma 8 Sudeste 0 -- -- 87
2018-01-18 01:00:00 10.1 0 Calma 6 Noroeste 0 -- -- 89
2018-01-18 00:00:00 10 3 Norte 6 Norte 0 -- -- 89
2018-01-17 23:00:00 9.7 3 Norte 7 Nordeste 0 -- -- 88
2018-01-17 22:00:00 9.5 3 Norte 4 Norte 0 -- -- 84
2018-01-17 21:00:00 10.9 0 Calma 12 Sudeste 0 -- -- 84
2018-01-17 20:00:00 10.5 6 Nordeste 14 Este 0 -- -- 81
2018-01-17 19:00:00 10.8 5 Sudeste 10 Noroeste 0 -- -- 67
2018-01-17 18:00:00 13.1 9 Noroeste 18 Noroeste 0 -- -- 60
2018-01-17 17:00:00 14.9 15 Noroeste 23 Noroeste 0 -- -- 53
2018-01-17 16:00:00 16.5 5 Noroeste 34 Noroeste 0 -- -- 48
2018-01-17 15:00:00 16 23 Noroeste 38 Noroeste 0 -- -- 51
2018-01-17 14:00:00 16.6 22 Noroeste 43 Noroeste 0 -- -- 49
2018-01-17 13:00:00 16.7 18 Norte 51 Noroeste 0 -- -- 49
2018-01-17 12:00:00 16.6 39 Noroeste 64 Noroeste 0 -- -- 51
2018-01-17 11:00:00 16.4 34 Noroeste 55 Noroeste 0 -- -- 50
2018-01-17 10:00:00 17.1 26 Oeste 59 Oeste 0 -- -- 50
2018-01-17 09:00:00 16.6 27 Oeste 53 Oeste 0 -- -- 53
2018-01-17 08:00:00 16.6 22 Noroeste 58 Oeste 0 -- -- 50
2018-01-17 07:00:00 16.8 20 Noroeste 58 Noroeste 0 -- -- 48
2018-01-17 06:00:00 16.7 25 Noroeste 50 Noroeste 0 -- -- 50
2018-01-17 05:00:00 16.9 22 Oeste 40 Oeste 0 -- -- 49
2018-01-17 04:00:00 16.4 14 Oeste 31 Oeste 0 -- -- 52
2018-01-17 03:00:00 16.8 19 Oeste 39 Oeste 0 -- -- 53
2018-01-17 02:00:00 14.1 19 Oeste 34 Oeste 0 -- -- 67
2018-01-17 01:00:00 15.3 22 Oeste 36 Oeste 0 -- -- 61
2018-01-17 00:00:00 15.5 22 Sudoeste 37 Oeste 0 -- -- 58
2018-01-16 23:00:00 13.5 20 Oeste 43 Oeste 0 -- -- 68
2018-01-16 22:00:00 13.5 22 Oeste 42 Sudoeste 0 -- -- 68
2018-01-16 21:00:00 13.7 16 Sudoeste 30 Sudoeste 0 -- -- 63
2018-01-16 20:00:00 11.5 6 Sudoeste 23 Sur 0 -- -- 72
2018-01-16 19:00:00 12.6 16 Sur 32 Sudoeste 0 -- -- 67
2018-01-16 18:00:00 13.3 12 Sur 39 Sudoeste 0 -- -- 68
2018-01-16 17:00:00 15 18 Sudoeste 37 Sudoeste 0 -- -- 62
2018-01-16 16:00:00 15.7 26 Sudoeste 43 Sudoeste 0 -- -- 59
2018-01-16 15:00:00 15.9 23 Sudoeste 45 Sudoeste 0 -- -- 60
2018-01-16 14:00:00 16.2 26 Sudoeste 40 Sudoeste 0 -- -- 59
2018-01-16 13:00:00 15.9 25 Sudoeste 43 Sudoeste 0 -- -- 61
2018-01-16 12:00:00 15.2 27 Sudoeste 41 Sudoeste 0 -- -- 60
2018-01-16 11:00:00 14.3 22 Sudoeste 34 Sudoeste 0 -- -- 64
2018-01-16 10:00:00 12.9 15 Sudoeste 30 Sudoeste 0 -- -- 68
2018-01-16 09:00:00 11 14 Sudoeste 24 Sudoeste 0 -- -- 81
2018-01-16 08:00:00 9.9 14 Sudoeste 21 Sudoeste 0 -- -- 83
2018-01-16 07:00:00 9.4 14 Sudoeste 22 Sudoeste 0 -- -- 87
2018-01-16 06:00:00 8.9 13 Oeste 30 Sudoeste 0 -- -- 87
2018-01-16 05:00:00 9 17 Oeste 30 Sudoeste 0 -- -- 87
2018-01-16 04:00:00 9.2 21 Oeste 28 Oeste 0 -- -- 86
2018-01-16 03:00:00 7.9 15 Oeste 21 Oeste 0 -- -- 89
2018-01-16 02:00:00 6.9 8 Sudoeste 16 Oeste 0 -- -- 86
2018-01-16 01:00:00 7.9 11 Oeste 21 Oeste 0 -- -- 86
2018-01-16 00:00:00 6.9 12 Oeste 17 Oeste 0 -- -- 85
2018-01-15 23:00:00 7.2 12 Oeste 23 Oeste 0 -- -- 83
2018-01-15 22:00:00 6.7 10 Oeste 17 Sudoeste 0 -- -- 82
2018-01-15 21:00:00 7 12 Sudoeste 17 Sudoeste 0 -- -- 82
2018-01-15 20:00:00 6.9 9 Oeste 14 Oeste 0 -- -- 77
2018-01-15 19:00:00 7.7 6 Oeste 13 Oeste 0 -- -- 71
2018-01-15 18:00:00 10.8 8 Oeste 13 Oeste 0 -- -- 63
2018-01-15 17:00:00 13.5 7 Oeste 17 Noroeste 0 -- -- 51
2018-01-15 16:00:00 14.3 10 Noroeste 16 Noroeste 0 -- -- 51
2018-01-15 15:00:00 14.6 6 Norte 16 Norte 0 -- -- 54
2018-01-15 14:00:00 14.6 3 Norte 18 Sudoeste 0 -- -- 56
2018-01-15 13:00:00 14.3 5 Sur 10 Sudoeste 0 -- -- 57
2018-01-15 12:00:00 13 3 Sur 6 Sur 0 -- -- 66
2018-01-15 11:00:00 10 3 Sur 7 Sur 0 -- -- 86
2018-01-15 10:00:00 6.2 3 Sur 4 Sur 0 -- -- 95
2018-01-15 09:00:00 1.5 5 Noroeste 8 Sur 0 -- -- 97
2018-01-15 08:00:00 0.4 3 Sur 8 Norte 0 -- -- 94
2018-01-15 07:00:00 0.9 2 Noroeste 10 Oeste 0 -- -- 93
2018-01-15 06:00:00 0.5 5 Sudoeste 7 Sudoeste 0 -- -- 94
2018-01-15 05:00:00 0.5 3 Sur 6 Sudeste 0 -- -- 93
2018-01-15 04:00:00 1 2 Sudoeste 5 Noroeste 0 -- -- 92
2018-01-15 03:00:00 1.3 5 Noroeste 7 Oeste 0 -- -- 91
2018-01-15 02:00:00 1.8 3 Oeste 5 Oeste 0 -- -- 91
2018-01-15 01:00:00 2.5 0 Calma 7 Noroeste 0 -- -- 90
2018-01-15 00:00:00 3.3 3 Noroeste 6 Oeste 0 -- -- 87
2018-01-14 23:00:00 4.3 8 Oeste 12 Sudoeste 0 -- -- 87
2018-01-14 22:00:00 4.7 5 Oeste 8 Noroeste 0 -- -- 83
2018-01-14 21:00:00 5.5 0 Calma 8 Oeste 0 -- -- 79
2018-01-14 20:00:00 7.2 5 Noroeste 9 Oeste 0 -- -- 74
2018-01-14 19:00:00 8.5 3 Nordeste 12 Oeste 0 -- -- 71
2018-01-14 18:00:00 10.4 8 Oeste 17 Noroeste 0 -- -- 65
2018-01-14 17:00:00 12.1 9 Oeste 18 Oeste 0 -- -- 62
2018-01-14 16:00:00 12.2 13 Oeste 23 Noroeste 0 -- -- 60
2018-01-14 15:00:00 13.3 18 Oeste 26 Oeste 0 -- -- 55
2018-01-14 14:00:00 13.4 13 Oeste 23 Sudoeste 0 -- -- 56
2018-01-14 13:00:00 13.2 17 Noroeste 23 Noroeste 0 -- -- 63
2018-01-14 12:00:00 12.5 6 Noroeste 23 Noroeste 0 -- -- 67
2018-01-14 11:00:00 12.5 13 Noroeste 22 Noroeste 0 -- -- 65
2018-01-14 10:00:00 11.5 10 Noroeste 20 Oeste 0 -- -- 71
2018-01-14 09:00:00 7.4 2 Sudoeste 14 Sudoeste 0 -- -- 89
2018-01-14 08:00:00 7 7 Sur 14 Oeste 0 -- -- 88
2018-01-14 07:00:00 7 11 Sudoeste 13 Sudoeste 0 -- -- 90
2018-01-14 06:00:00 7.5 5 Sudoeste 9 Noroeste 0 -- -- 89
2018-01-14 05:00:00 7.5 4 Sur 5 Noroeste 0 -- -- 90
2018-01-14 04:00:00 7.2 0 Calma 10 Oeste 0 -- -- 89
2018-01-14 03:00:00 7.7 5 Oeste 14 Oeste 0 -- -- 90
2018-01-14 02:00:00 6.6 2 Oeste 4 Noroeste 0 -- -- 91
2018-01-14 01:00:00 6.9 0 Calma 8 Noroeste 0 -- -- 90
2018-01-14 00:00:00 6.7 2 Noroeste 6 Oeste 0 -- -- 87
2018-01-13 23:00:00 7.2 4 Oeste 7 Oeste 0 -- -- 86
2018-01-13 22:00:00 9.3 4 Sudoeste 9 Sudoeste 0 -- -- 80
2018-01-13 21:00:00 9.7 3 Sudoeste 8 Sur 0 -- -- 82
2018-01-13 20:00:00 10.1 0 Calma 6 Noroeste 0 -- -- 82
2018-01-13 19:00:00 10.3 0 Calma 6 Noroeste 0 -- -- 81
2018-01-13 18:00:00 10.5 2 Norte 5 Sur 0 -- -- 77
2018-01-13 17:00:00 11.8 3 Sur 14 Sur 0 -- -- 71
2018-01-13 16:00:00 12.2 8 Sur 18 Sur 0 -- -- 68
2018-01-13 15:00:00 12.8 12 Sur 19 Sudoeste 0 -- -- 61
2018-01-13 14:00:00 13.4 4 Sur 15 Sudoeste 0 -- -- 58
2018-01-13 13:00:00 13.4 8 Sudoeste 15 Sudeste 0 -- -- 61
2018-01-13 12:00:00 12.8 4 Sudoeste 12 Sudeste 0 -- -- 64
2018-01-13 11:00:00 11.1 0 Calma 4 Sudoeste 0 -- -- 84
2018-01-13 10:00:00 6.1 0 Calma 6 Oeste 0 -- -- 96
2018-01-13 09:00:00 1.3 4 Oeste 8 Oeste 0 -- -- 96
2018-01-13 08:00:00 0.1 4 Oeste 15 Sudoeste 0 -- -- 93
2018-01-13 07:00:00 0.5 0 Calma 13 Sudoeste 0 -- -- 94
2018-01-13 06:00:00 0 2 Este 4 Noroeste 0 -- -- 93
2018-01-13 05:00:00 0.4 2 Oeste 8 Sudoeste 0 -- -- 93
2018-01-13 04:00:00 0.9 0 Calma 8 Noroeste 0 -- -- 92
2018-01-13 03:00:00 1.4 7 Oeste 10 Sudoeste 0 -- -- 92
2018-01-13 02:00:00 1.6 5 Sudoeste 8 Oeste 0 -- -- 90
2018-01-13 01:00:00 2.2 0 Calma 6 Noroeste 0 -- -- 88
2018-01-13 00:00:00 3.3 5 Noroeste 8 Norte 0 -- -- 87
2018-01-12 23:00:00 4 5 Noroeste 8 Noroeste 0 -- -- 84
2018-01-12 22:00:00 6.3 0 Calma 12 Nordeste 0 -- -- 78
2018-01-12 21:00:00 7.4 6 Oeste 11 Oeste 0 -- -- 73
2018-01-12 20:00:00 9 8 Oeste 14 Oeste 0 -- -- 70
2018-01-12 19:00:00 9.2 4 Sudoeste 12 Noroeste 0 -- -- 69
2018-01-12 18:00:00 10.2 7 Noroeste 24 Oeste 0 -- -- 66
2018-01-12 17:00:00 12.2 14 Oeste 24 Noroeste 0 -- -- 59
2018-01-12 16:00:00 13.3 15 Noroeste 26 Noroeste 0 -- -- 53
2018-01-12 15:00:00 14.2 14 Sudoeste 25 Oeste 0 -- -- 57
2018-01-12 14:00:00 14.3 15 Sudoeste 24 Oeste 0 -- -- 53
2018-01-12 13:00:00 14.1 13 Oeste 22 Sudoeste 0 -- -- 61
2018-01-12 12:00:00 13.7 8 Sur 15 Sur 0 -- -- 63
2018-01-12 11:00:00 13 0 Calma 5 Sur 0 -- -- 72
2018-01-12 10:00:00 8.6 2 Sudeste 5 Sur 0 -- -- 90
2018-01-12 09:00:00 4 0 Calma 7 Sudoeste 0 -- -- 92
2018-01-12 08:00:00 3.3 0 Calma 9 Sudoeste 0 -- -- 88
2018-01-12 07:00:00 4.4 6 Oeste 10 Oeste 0 -- -- 89
2018-01-12 06:00:00 4.9 8 Norte 13 Norte 0 -- -- 87
2018-01-12 05:00:00 5 5 Noroeste 9 Noroeste 0 -- -- 86
2018-01-12 04:00:00 5.9 0 Calma 9 Noroeste 0 -- -- 82
2018-01-12 03:00:00 8.5 5 Noroeste 15 Noroeste 0 -- -- 74
2018-01-12 02:00:00 9.4 12 Noroeste 18 Noroeste 0 -- -- 72
2018-01-12 01:00:00 9.5 12 Noroeste 17 Oeste 0 -- -- 73
2018-01-12 00:00:00 9.8 10 Noroeste 21 Noroeste 0 -- -- 71
2018-01-11 23:00:00 7.8 11 Noroeste 15 Noroeste 0 -- -- 85
2018-01-11 22:00:00 6.3 5 Noroeste 11 Noroeste 0 -- -- 84
2018-01-11 21:00:00 7.7 0 Calma 12 Oeste 0 -- -- 76
2018-01-11 20:00:00 8.9 2 Noroeste 9 Noroeste 0 -- -- 71
2018-01-11 19:00:00 10.1 4 Noroeste 23 Noroeste 0 -- -- 66
2018-01-11 18:00:00 10.6 11 Noroeste 23 Norte 0 -- -- 63
2018-01-11 17:00:00 10.8 14 Noroeste 32 Noroeste 0 -- -- 61
2018-01-11 16:00:00 10.8 15 Noroeste 32 Noroeste 0 -- -- 63
2018-01-11 15:00:00 11.2 13 Noroeste 25 Noroeste 0 -- -- 61
2018-01-11 14:00:00 11.5 11 Oeste 31 Noroeste 0 -- -- 60
2018-01-11 13:00:00 10.9 14 Noroeste 38 Norte 0.2 -- -- 63
2018-01-11 12:00:00 12.3 21 Noroeste 48 Noroeste 0 -- -- 57
2018-01-11 11:00:00 11.8 27 Noroeste 47 Noroeste 0 -- -- 57
2018-01-11 10:00:00 11.4 18 Noroeste 41 Norte 0 -- -- 58
2018-01-11 09:00:00 10.5 21 Noroeste 49 Noroeste 0 -- -- 56
2018-01-11 08:00:00 10.3 28 Noroeste 52 Noroeste 0 -- -- 61
2018-01-11 07:00:00 10.5 23 Noroeste 53 Noroeste 0 -- -- 61
2018-01-11 06:00:00 10.7 31 Noroeste 58 Noroeste 0 -- -- 61
2018-01-11 05:00:00 11.2 32 Noroeste 53 Noroeste 0 -- -- 64
2018-01-11 04:00:00 11.8 35 Noroeste 53 Noroeste 0.8 -- -- 69
2018-01-11 03:00:00 11.8 17 Oeste 34 Sudoeste 0.4 -- -- 77
2018-01-11 02:00:00 10.3 15 Sudoeste 24 Sudoeste 0 -- -- 86
2018-01-11 01:00:00 8.6 3 Sur 9 Oeste 0 -- -- 89
2018-01-11 00:00:00 8.8 9 Oeste 16 Oeste 0 -- -- 89
2018-01-10 23:00:00 8.1 11 Oeste 15 Oeste 0 -- -- 91
2018-01-10 22:00:00 8.3 8 Sudoeste 10 Sudoeste 0 -- -- 90
2018-01-10 21:00:00 9.1 7 Sudoeste 13 Sudoeste 0 -- -- 88
2018-01-10 20:00:00 9.4 9 Sudoeste 18 Sudoeste 0 -- -- 86
2018-01-10 19:00:00 10 7 Sudoeste 18 Oeste 0 -- -- 83
2018-01-10 18:00:00 11.5 13 Oeste 19 Oeste 0 -- -- 78
2018-01-10 17:00:00 13.3 13 Oeste 21 Sudoeste 0 -- -- 72
2018-01-10 16:00:00 14.2 16 Oeste 27 Oeste 0 -- -- 69
2018-01-10 15:00:00 13.8 15 Oeste 25 Oeste 0 -- -- 75
2018-01-10 14:00:00 13.5 16 Oeste 26 Oeste 0 -- -- 80
2018-01-10 13:00:00 13.4 14 Sudoeste 30 Sudoeste 0 -- -- 79
2018-01-10 12:00:00 13.4 16 Sudoeste 23 Oeste 0 -- -- 77
2018-01-10 11:00:00 12 13 Sudoeste 19 Sudoeste 0 -- -- 81
2018-01-10 10:00:00 11.3 12 Sudoeste 21 Sudoeste 0 -- -- 80
2018-01-10 09:00:00 10.7 13 Sudoeste 21 Sudoeste 0 -- -- 84
2018-01-10 08:00:00 10 6 Sudoeste 10 Oeste 0 -- -- 86
2018-01-10 07:00:00 9.8 5 Oeste 15 Sudoeste 0 -- -- 85
2018-01-10 06:00:00 9.6 10 Sudoeste 17 Oeste 0 -- -- 85
2018-01-10 05:00:00 9.4 10 Sudoeste 13 Sudoeste 0 -- -- 85
2018-01-10 04:00:00 10 11 Sudoeste 21 Oeste 0 -- -- 81
2018-01-10 03:00:00 10.2 14 Oeste 29 Oeste 0 -- -- 81
2018-01-10 02:00:00 9.9 12 Oeste 25 Oeste 0 -- -- 81
2018-01-10 01:00:00 9.3 11 Oeste 24 Oeste 0 -- -- 81
2018-01-10 00:00:00 9.6 13 Oeste 22 Oeste 0 -- -- 81
2018-01-09 23:00:00 8.7 6 Oeste 12 Oeste 0 -- -- 83
2018-01-09 22:00:00 8.9 9 Oeste 15 Oeste 0 -- -- 85
2018-01-09 21:00:00 8.1 9 Sudoeste 13 Sudoeste 0 -- -- 87
2018-01-09 20:00:00 8.3 6 Sudoeste 12 Sudoeste 0 -- -- 85
2018-01-09 19:00:00 9.5 8 Sudoeste 11 Sudoeste 0 -- -- 81
2018-01-09 18:00:00 10.8 8 Sudoeste 22 Sudoeste 0 -- -- 74
2018-01-09 17:00:00 12.8 16 Sudoeste 33 Sudoeste 0 -- -- 67
2018-01-09 16:00:00 13.2 20 Sudoeste 35 Sudoeste 0 -- -- 67
2018-01-09 15:00:00 14.2 24 Sudoeste 39 Sudoeste 0 -- -- 62
2018-01-09 14:00:00 13.6 20 Sudoeste 40 Sudoeste 0 -- -- 72
2018-01-09 13:00:00 14.2 20 Sudoeste 37 Sudoeste 0 -- -- 67
2018-01-09 12:00:00 14.3 22 Oeste 36 Sudoeste 0 -- -- 70
2018-01-09 11:00:00 12.7 12 Oeste 19 Oeste 0 -- -- 78
2018-01-09 10:00:00 9.9 8 Sudoeste 10 Sudoeste 0 -- -- 92
2018-01-09 09:00:00 8 7 Oeste 10 Oeste 0 -- -- 94
2018-01-09 08:00:00 6.8 9 Sudoeste 14 Sudoeste 0 -- -- 94
2018-01-09 07:00:00 3.7 4 Sur 6 Sudoeste 0 -- -- 93
2018-01-09 06:00:00 5 5 Oeste 9 Sudoeste 0 -- -- 92
2018-01-09 05:00:00 4.9 0 Calma 14 Sudoeste 0 -- -- 91
2018-01-09 04:00:00 5.2 4 Sudoeste 8 Sur 0 -- -- 90
2018-01-09 03:00:00 6.5 6 Oeste 10 Oeste 0 -- -- 87
2018-01-09 02:00:00 7.4 8 Sudoeste 11 Sudoeste 0 -- -- 86
2018-01-09 01:00:00 8 8 Sudoeste 18 Oeste 0 -- -- 82
2018-01-09 00:00:00 8.6 12 Oeste 19 Oeste 0 -- -- 79
2018-01-08 23:00:00 8.4 13 Sudoeste 19 Sudoeste 0 -- -- 79
2018-01-08 22:00:00 8.3 11 Sudoeste 18 Oeste 0 -- -- 81
2018-01-08 21:00:00 8.5 8 Oeste 16 Sudoeste 0 -- -- 83
2018-01-08 20:00:00 9.3 11 Oeste 19 Sudoeste 0 -- -- 81
2018-01-08 19:00:00 9.3 9 Sudoeste 20 Oeste 0 -- -- 81
2018-01-08 18:00:00 9.6 11 Oeste 19 Oeste 0 -- -- 84
2018-01-08 17:00:00 9.6 6 Oeste 14 Oeste 0.2 -- -- 89
2018-01-08 16:00:00 9.9 10 Oeste 18 Oeste 0.2 -- -- 88
2018-01-08 15:00:00 10.2 8 Oeste 24 Oeste 0.8 -- -- 84
2018-01-08 14:00:00 10 14 Noroeste 23 Noroeste 1.2 -- -- 93
2018-01-08 13:00:00 9 4 Sur 8 Este 0.2 -- -- 97
2018-01-08 12:00:00 8.9 4 Sur 10 Sudoeste 0 -- -- 97
2018-01-08 11:00:00 7.5 5 Sur 7 Sur 0.2 -- -- 97
2018-01-08 10:00:00 6.9 3 Este 12 Este 0 -- -- 97
2018-01-08 09:00:00 5.2 5 Oeste 8 Sudeste 0 -- -- 98
2018-01-08 08:00:00 3.7 0 Calma 4 Noroeste 0 -- -- 97
2018-01-08 07:00:00 3.5 0 Calma 5 Sudoeste 0 -- -- 97
2018-01-08 06:00:00 3 5 Noroeste 6 Noroeste 0 -- -- 97
2018-01-08 05:00:00 2.7 4 Sur 7 Sudoeste 0 -- -- 97
2018-01-08 04:00:00 2.1 3 Oeste 9 Norte 0 -- -- 97
2018-01-08 03:00:00 2.4 3 Nordeste 8 Noroeste 0 -- -- 96
2018-01-08 02:00:00 2.7 5 Noroeste 7 Noroeste 0 -- -- 97
2018-01-08 01:00:00 3.4 4 Oeste 10 Norte 0 -- -- 96
2018-01-08 00:00:00 3.1 5 Noroeste 6 Noroeste 0 -- -- 96
2018-01-07 23:00:00 4.7 3 Sudeste 8 Norte 0 -- -- 95
2018-01-07 22:00:00 5.9 5 Noroeste 8 Noroeste 0 -- -- 95
2018-01-07 21:00:00 6.9 5 Sur 7 Sur 0 -- -- 94
2018-01-07 20:00:00 8.6 4 Noroeste 8 Noroeste 0 -- -- 93
2018-01-07 19:00:00 9.3 0 Calma 4 Nordeste 0 -- -- 93
2018-01-07 18:00:00 9.5 4 Nordeste 6 Nordeste 0 -- -- 91
2018-01-07 17:00:00 10.9 4 Este 7 Este 0 -- -- 92
2018-01-07 16:00:00 10.2 3 Norte 16 Este 1.8 -- -- 95
2018-01-07 15:00:00 9.3 9 Este 14 Este 0 -- -- 95
2018-01-07 14:00:00 9 4 Sudeste 9 Sudeste 0 -- -- 95
2018-01-07 13:00:00 8.9 5 Norte 11 Norte 0.2 -- -- 94
2018-01-07 12:00:00 9 5 Este 12 Norte 0.4 -- -- 94
2018-01-07 11:00:00 8.9 9 Norte 14 Norte 4.6 -- -- 93
2018-01-07 10:00:00 9.2 0 Calma 15 Noroeste 1.8 -- -- 92
2018-01-07 09:00:00 9.3 12 Oeste 20 Noroeste 2.2 -- -- 90
2018-01-07 08:00:00 10.3 13 Oeste 23 Sudoeste 0 -- -- 86
2018-01-07 07:00:00 9.5 2 Sudeste 5 Sudeste 0 -- -- 84
2018-01-07 06:00:00 10.4 4 Sudeste 12 Sur 0 -- -- 82
2018-01-07 05:00:00 10.5 6 Sudoeste 18 Sudoeste 0 -- -- 83
2018-01-07 04:00:00 11.5 11 Sudoeste 18 Sudoeste 0 -- -- 80
2018-01-07 03:00:00 12 9 Sudoeste 32 Sudoeste 0 -- -- 77
2018-01-07 02:00:00 13.2 22 Sudoeste 37 Sudoeste 0 -- -- 73
2018-01-07 01:00:00 13.5 17 Sudoeste 29 Sudoeste 0 -- -- 74
2018-01-07 00:00:00 13.9 17 Sudoeste 30 Sudoeste 0 -- -- 79
2018-01-06 23:00:00 11.5 4 Este 12 Norte 0 -- -- 85
2018-01-06 22:00:00 11.9 3 Norte 12 Noroeste 0 -- -- 84
2018-01-06 21:00:00 11.9 9 Noroeste 14 Sudoeste 0 -- -- 81
2018-01-06 20:00:00 13.2 9 Sudoeste 15 Sudoeste 0 -- -- 78
2018-01-06 19:00:00 12.1 3 Noroeste 8 Norte 0 -- -- 83
2018-01-06 18:00:00 14.5 5 Nordeste 10 Este 0 -- -- 78
2018-01-06 17:00:00 16.2 7 Sudeste 17 Sudeste 0 -- -- 69
2018-01-06 16:00:00 16 4 Este 12 Este 0 -- -- 79
2018-01-06 15:00:00 15.9 8 Este 18 Nordeste 0 -- -- 80
2018-01-06 14:00:00 15.8 10 Nordeste 19 Nordeste 0 -- -- 79
2018-01-06 13:00:00 16.2 8 Este 18 Este 0 -- -- 78
2018-01-06 12:00:00 15.2 7 Nordeste 13 Nordeste 0 -- -- 85
2018-01-06 11:00:00 14 3 Sur 12 Noroeste 0 -- -- 92
2018-01-06 10:00:00 11.5 2 Sudeste 4 Este 0 -- -- 96
2018-01-06 09:00:00 9.2 2 Sur 7 Noroeste 0 -- -- 97
2018-01-06 08:00:00 10.1 3 Sudoeste 8 Oeste 0 -- -- 96
2018-01-06 07:00:00 9.8 4 Oeste 6 Oeste 0 -- -- 96
2018-01-06 06:00:00 8.4 4 Sudoeste 6 Sudoeste 0 -- -- 95
2018-01-06 05:00:00 8.8 3 Sur 9 Sur 0 -- -- 94
2018-01-06 04:00:00 9.2 5 Sudoeste 12 Oeste 0 -- -- 94
2018-01-06 03:00:00 9.1 6 Sudoeste 8 Sur 0 -- -- 94
2018-01-06 02:00:00 9.5 5 Sur 9 Sudoeste 0 -- -- 93
2018-01-06 01:00:00 9.7 7 Sur 8 Sur 0 -- -- 92
2018-01-06 00:00:00 10.5 3 Sur 9 Sudoeste 0 -- -- 91
2018-01-05 23:00:00 10 8 Sudoeste 12 Sudoeste 0 -- -- 90
2018-01-05 22:00:00 10.9 6 Sudoeste 12 Oeste 0 -- -- 86
2018-01-05 21:00:00 11.9 7 Sudoeste 21 Oeste 0 -- -- 84
2018-01-05 20:00:00 12.8 16 Sudoeste 28 Sudoeste 0 -- -- 84
2018-01-05 19:00:00 13.4 17 Sudoeste 30 Oeste 0 -- -- 76
2018-01-05 18:00:00 13.8 20 Sudoeste 36 Sudoeste 0 -- -- 67
2018-01-05 17:00:00 15.7 21 Sudoeste 39 Sudoeste 0 -- -- 57
2018-01-05 16:00:00 16.6 24 Sudoeste 44 Sudoeste 0 -- -- 55
2018-01-05 15:00:00 17.1 29 Oeste 48 Sudoeste 0 -- -- 53
2018-01-05 14:00:00 17.1 31 Sudoeste 52 Sudoeste 0 -- -- 55
2018-01-05 13:00:00 17.1 31 Sudoeste 48 Sudoeste 0 -- -- 57
2018-01-05 12:00:00 16.9 26 Sudoeste 39 Oeste 0 -- -- 59
2018-01-05 11:00:00 15.5 13 Sudoeste 22 Sudoeste 0 -- -- 78
2018-01-05 10:00:00 11.9 5 Sudoeste 9 Sur 0 -- -- 95
2018-01-05 09:00:00 7.4 8 Sudoeste 9 Sudoeste 0 -- -- 97
2018-01-05 08:00:00 4.4 4 Oeste 8 Sudoeste 0 -- -- 94
2018-01-05 07:00:00 4.5 5 Sudoeste 8 Sudoeste 0 -- -- 95
2018-01-05 06:00:00 4.9 3 Oeste 8 Noroeste 0 -- -- 93
2018-01-05 05:00:00 5.6 3 Sudoeste 8 Sudoeste 0 -- -- 93
2018-01-05 04:00:00 6.5 5 Sur 8 Oeste 0 -- -- 94
2018-01-05 03:00:00 6.6 6 Noroeste 7 Noroeste 0 -- -- 92
2018-01-05 02:00:00 7.5 4 Oeste 8 Noroeste 0 -- -- 91
2018-01-05 01:00:00 8.9 4 Oeste 7 Sur 0 -- -- 90
2018-01-05 00:00:00 9.6 4 Noroeste 13 Noroeste 0 -- -- 87
2018-01-04 23:00:00 10.1 3 Oeste 6 Oeste 0 -- -- 87
2018-01-04 22:00:00 11.5 2 Oeste 14 Oeste 0 -- -- 86
2018-01-04 21:00:00 12.6 6 Sudeste 15 Sudoeste 0 -- -- 86
2018-01-04 20:00:00 12.8 8 Sudoeste 21 Sudoeste 0 -- -- 84
2018-01-04 19:00:00 14.8 16 Sudoeste 38 Sudoeste 0 -- -- 74
2018-01-04 18:00:00 15.7 14 Sudoeste 26 Sudoeste 0 -- -- 71
2018-01-04 17:00:00 18.4 17 Sudoeste 25 Sudoeste 0 -- -- 63
2018-01-04 16:00:00 19.8 17 Oeste 31 Oeste 0 -- -- 55
2018-01-04 15:00:00 20.5 18 Sudoeste 28 Oeste 0 -- -- 55
2018-01-04 14:00:00 21.3 18 Sudoeste 31 Sudoeste 0 -- -- 53
2018-01-04 13:00:00 22.4 15 Oeste 30 Oeste 0 -- -- 49
2018-01-04 12:00:00 21.6 17 Oeste 34 Oeste 0 -- -- 50
2018-01-04 11:00:00 21.4 22 Oeste 42 Noroeste 0 -- -- 49
2018-01-04 10:00:00 20.3 9 Sudoeste 43 Oeste 0 -- -- 49
2018-01-04 09:00:00 19.9 23 Oeste 43 Oeste 0 -- -- 49
2018-01-04 08:00:00 19.7 25 Oeste 46 Oeste 0 -- -- 49
2018-01-04 07:00:00 19.7 31 Noroeste 64 Noroeste 0 -- -- 50
2018-01-04 06:00:00 19.8 26 Noroeste 42 Noroeste 0 -- -- 50
2018-01-04 05:00:00 19.8 19 Oeste 50 Oeste 0 -- -- 50
2018-01-04 04:00:00 20.1 19 Noroeste 48 Noroeste 0 -- -- 49
2018-01-04 03:00:00 19.9 22 Noroeste 44 Noroeste 0 -- -- 50
2018-01-04 02:00:00 20.1 21 Noroeste 40 Noroeste 0 -- -- 50
2018-01-04 01:00:00 19.1 15 Noroeste 34 Noroeste 0 -- -- 53
2018-01-04 00:00:00 19.4 19 Noroeste 31 Noroeste 0 -- -- 53
2018-01-03 23:00:00 18.3 20 Oeste 29 Oeste 0 -- -- 58
2018-01-03 22:00:00 16.4 14 Oeste 24 Sudoeste 0 -- -- 67
2018-01-03 21:00:00 17.9 14 Noroeste 35 Oeste 0 -- -- 58
2018-01-03 20:00:00 18.4 19 Noroeste 36 Noroeste 0 -- -- 55
2018-01-03 19:00:00 20.3 27 Noroeste 45 Noroeste 0 -- -- 48
2018-01-03 18:00:00 20.2 24 Oeste 51 Noroeste 0 -- -- 47
2018-01-03 17:00:00 21.3 30 Noroeste 49 Noroeste 0 -- -- 44
2018-01-03 16:00:00 21.8 21 Oeste 48 Oeste 0 -- -- 45
2018-01-03 15:00:00 21.8 21 Noroeste 38 Noroeste 0 -- -- 46
2018-01-03 14:00:00 19.8 18 Sudoeste 37 Sur 0 -- -- 60
2018-01-03 13:00:00 17.7 18 Sudoeste 29 Sudoeste 0 -- -- 73
2018-01-03 12:00:00 17.5 15 Sudoeste 29 Sur 0 -- -- 70
2018-01-03 11:00:00 16.9 22 Sudoeste 32 Sudoeste 0 -- -- 73
2018-01-03 10:00:00 16.7 16 Sudoeste 29 Sudoeste 0 -- -- 67
2018-01-03 09:00:00 15.7 13 Sudoeste 26 Sur 0 -- -- 68
2018-01-03 08:00:00 14.6 15 Sur 27 Sur 0 -- -- 69
2018-01-03 07:00:00 15.2 19 Sur 26 Sudoeste 0 -- -- 67
2018-01-03 06:00:00 15.5 14 Sudoeste 26 Sur 0 -- -- 65
2018-01-03 05:00:00 16.5 12 Sudoeste 27 Sur 0 -- -- 61
2018-01-03 04:00:00 15.9 15 Sudoeste 30 Sudoeste 0 -- -- 64
2018-01-03 03:00:00 15.3 12 Sudoeste 21 Sudoeste 0 -- -- 68
2018-01-03 02:00:00 13.5 14 Sudoeste 21 Sur 0 -- -- 77
2018-01-03 01:00:00 14.6 10 Sudoeste 23 Sudoeste 0 -- -- 69
2018-01-03 00:00:00 12.6 9 Sur 17 Sur 0 -- -- 80
2018-01-02 23:00:00 12.4 2 Sur 22 Sudoeste 0 -- -- 77
2018-01-02 22:00:00 11.9 9 Sudoeste 19 Sudoeste 0 -- -- 83
2018-01-02 21:00:00 12.7 6 Sudoeste 18 Sudoeste 0 -- -- 73
2018-01-02 20:00:00 13.8 14 Sudoeste 24 Sudoeste 0 -- -- 65
2018-01-02 19:00:00 13.9 15 Sudoeste 26 Sudoeste 0 -- -- 66
2018-01-02 18:00:00 15 18 Sudoeste 37 Sudoeste 0 -- -- 61
2018-01-02 17:00:00 16.1 13 Sudoeste 30 Sudoeste 0 -- -- 65
2018-01-02 16:00:00 17.4 22 Sudoeste 31 Sudoeste 0 -- -- 53
2018-01-02 15:00:00 18.2 18 Sudoeste 33 Oeste 0 -- -- 52
2018-01-02 14:00:00 18.4 12 Oeste 26 Oeste 0 -- -- 46
2018-01-02 13:00:00 18.6 12 Noroeste 27 Oeste 0 -- -- 48
2018-01-02 12:00:00 17.7 12 Noroeste 20 Noroeste 0 -- -- 52
2018-01-02 11:00:00 16.5 9 Sudoeste 23 Sur 0 -- -- 61
2018-01-02 10:00:00 15 15 Sudoeste 23 Sudoeste 0 -- -- 68
2018-01-02 09:00:00 13.6 5 Sudoeste 27 Noroeste 0 -- -- 69
2018-01-02 08:00:00 13.4 14 Noroeste 23 Noroeste 0 -- -- 68
2018-01-02 07:00:00 13.4 13 Oeste 27 Sudoeste 0 -- -- 70
2018-01-02 06:00:00 14.2 12 Sudoeste 19 Noroeste 0 -- -- 61
2018-01-02 05:00:00 15.3 10 Sudoeste 39 Oeste 0 -- -- 55
2018-01-02 04:00:00 15.2 18 Sudoeste 39 Sur 0 -- -- 57
2018-01-02 03:00:00 15.1 20 Sur 45 Sudoeste 0 -- -- 57
2018-01-02 02:00:00 15.6 14 Sudoeste 44 Oeste 0 -- -- 53
2018-01-02 01:00:00 16.6 17 Oeste 69 Noroeste 0 -- -- 47
2018-01-02 00:00:00 16.9 40 Noroeste 80 Noroeste 0 -- -- 44
2018-01-01 23:00:00 17.1 53 Noroeste 84 Noroeste 0 -- -- 40
2018-01-01 22:00:00 16.7 36 Noroeste 54 Noroeste 0 -- -- 36
2018-01-01 21:00:00 13.6 23 Oeste 55 Sudoeste 0 -- -- 52
2018-01-01 20:00:00 13.3 28 Oeste 40 Sudoeste 0 -- -- 56
2018-01-01 19:00:00 13 19 Oeste 44 Oeste 0 -- -- 64
2018-01-01 18:00:00 13.4 22 Oeste 51 Oeste 0 -- -- 47
2018-01-01 17:00:00 13.7 23 Sudoeste 42 Sudoeste 0 -- -- 58
2018-01-01 16:00:00 14.6 26 Sudoeste 39 Sudoeste 0 -- -- 59
2018-01-01 15:00:00 16.1 15 Oeste 36 Sudoeste 0 -- -- 34
2018-01-01 14:00:00 15.5 24 Oeste 42 Oeste 0 -- -- 47
2018-01-01 13:00:00 15 28 Noroeste 43 Oeste 0 -- -- 43
2018-01-01 12:00:00 14.7 13 Oeste 36 Noroeste 0 -- -- 46
2018-01-01 11:00:00 13.9 23 Noroeste 57 Noroeste 0 -- -- 47
2018-01-01 10:00:00 13.4 18 Noroeste 33 Noroeste 0 -- -- 48
2018-01-01 09:00:00 12.4 14 Oeste 39 Noroeste 0 -- -- 54
2018-01-01 08:00:00 12 9 Oeste 42 Noroeste 0 -- -- 56
2018-01-01 07:00:00 12.6 18 Noroeste 44 Noroeste 0 -- -- 54
2018-01-01 06:00:00 12.7 28 Noroeste 85 Noroeste 0 -- -- 55
2018-01-01 05:00:00 13 37 Noroeste 64 Noroeste 0 -- -- 50
2018-01-01 04:00:00 13.4 37 Noroeste 70 Noroeste 0 -- -- 50
2018-01-01 03:00:00 13.5 26 Noroeste 69 Norte 0 -- -- 54
2018-01-01 02:00:00 14.1 35 Noroeste 59 Noroeste 0 -- -- 57
2018-01-01 01:00:00 14.8 21 Oeste 37 Noroeste 0 -- -- 65
2018-01-01 00:00:00 13.7 12 Sudoeste 24 Sudoeste 0 -- -- 69
2017-12-31 23:00:00 14 15 Sudoeste 44 Oeste 0 -- -- 71
2017-12-31 22:00:00 15.6 29 Oeste 57 Oeste 0 -- -- 64
2017-12-31 21:00:00 15.3 30 Oeste 46 Oeste 0 -- -- 65
2017-12-31 20:00:00 14.3 23 Oeste 36 Sudoeste 0 -- -- 85
2017-12-31 19:00:00 13.5 15 Sudoeste 29 Sudoeste 0 -- -- 92
2017-12-31 18:00:00 13.9 19 Sudoeste 29 Sudoeste 0 -- -- 90
2017-12-31 17:00:00 14.4 21 Sudoeste 34 Sudoeste 0 -- -- 88
2017-12-31 16:00:00 15.3 19 Sudoeste 32 Sudoeste 0 -- -- 86
2017-12-31 15:00:00 15.7 16 Sudoeste 33 Sudoeste 0 -- -- 83
2017-12-31 14:00:00 16 21 Sudoeste 35 Sudoeste 0 -- -- 84
2017-12-31 13:00:00 15.6 22 Sudoeste 31 Sudoeste 0 -- -- 89
2017-12-31 12:00:00 14.7 15 Sudoeste 28 Sudoeste 0 -- -- 95
2017-12-31 11:00:00 14 17 Oeste 27 Oeste 0 -- -- 96
2017-12-31 10:00:00 12.9 8 Oeste 20 Oeste 0 -- -- 98
2017-12-31 09:00:00 11.1 12 Oeste 16 Sudoeste 0 -- -- 97
2017-12-31 08:00:00 9 11 Sudoeste 15 Sudoeste 0 -- -- 96
2017-12-31 07:00:00 10.2 4 Oeste 8 Sudoeste 0 -- -- 95
2017-12-31 06:00:00 10.8 7 Sudoeste 15 Oeste 0 -- -- 95
2017-12-31 05:00:00 8.8 5 Sudoeste 12 Oeste 0 -- -- 94
2017-12-31 04:00:00 6.9 5 Sudoeste 11 Oeste 0 -- -- 91
2017-12-31 03:00:00 6.6 4 Oeste 10 Sudoeste 0 -- -- 89
2017-12-31 02:00:00 7.7 4 Oeste 9 Oeste 0 -- -- 88
2017-12-31 01:00:00 9.1 5 Sudoeste 14 Oeste 0 -- -- 85